Time;durP1;ratioP1;P1;durP2;ratioP2;P2;SDS_P1;SDS_P2;PMS_P1;PMS_P2;Temp;Humidity;BMP_temperature;BMP_pressure;BME280_temperature;BME280_humidity;BME280_pressure;Samples;Min_cycle;Max_cycle;Signal;HPM_P1;HPM_P2
2024/04/02 00:01:55;;;;;;;1.13;0.52;;;10.00;99.90;;;;;;5097815;28;20059;-86
2024/04/02 00:04:20;;;;;;;1.27;0.20;;;10.00;99.90;;;;;;5097845;28;20047;-86
2024/04/02 00:06:47;;;;;;;0.73;0.30;;;10.00;99.90;;;;;;5079283;28;20020;-86
2024/04/02 00:09:12;;;;;;;1.92;0.30;;;10.10;99.90;;;;;;5080215;28;20107;-85
2024/04/02 00:11:38;;;;;;;1.08;0.30;;;10.10;99.90;;;;;;5079847;28;20070;-89
2024/04/02 00:14:04;;;;;;;0.63;0.30;;;10.10;99.90;;;;;;5079451;28;20027;-86
2024/04/02 00:16:29;;;;;;;1.08;0.47;;;10.10;99.90;;;;;;5079871;28;20035;-85
2024/04/02 00:18:55;;;;;;;0.50;0.30;;;10.10;99.90;;;;;;5079377;28;20051;-87
2024/04/02 00:21:20;;;;;;;1.67;0.35;;;10.10;99.90;;;;;;5081043;28;20051;-89
2024/04/02 00:23:47;;;;;;;1.08;0.25;;;10.10;99.90;;;;;;5081387;28;20024;-90
2024/04/02 00:26:13;;;;;;;0.32;0.32;;;10.10;99.90;;;;;;5081499;28;20020;-89
2024/04/02 00:28:38;;;;;;;0.40;0.30;;;10.10;99.90;;;;;;5079242;28;20115;-92
2024/04/02 00:31:06;;;;;;;0.77;0.35;;;10.10;99.90;;;;;;5079406;28;20059;-88
2024/04/02 00:33:32;;;;;;;1.35;0.57;;;10.10;99.90;;;;;;5079403;28;20483;-88
2024/04/02 00:36:02;;;;;;;0.28;0.20;;;10.10;99.90;;;;;;5079100;28;20350;-85
2024/04/02 00:38:28;;;;;;;0.77;0.30;;;10.10;99.90;;;;;;5079143;28;20016;-84
2024/04/02 00:40:53;;;;;;;0.85;0.30;;;10.10;99.90;;;;;;5078966;28;20341;-85
2024/04/02 00:43:19;;;;;;;0.38;0.30;;;10.10;99.90;;;;;;5079229;28;20020;-84
2024/04/02 00:45:44;;;;;;;1.33;0.40;;;10.10;99.90;;;;;;5077362;28;20052;-84
2024/04/02 00:48:11;;;;;;;0.47;0.30;;;10.00;99.90;;;;;;5078012;28;20116;-84
2024/04/02 00:50:36;;;;;;;0.77;0.40;;;10.00;99.90;;;;;;5077850;28;20024;-84
2024/04/02 00:53:02;;;;;;;0.77;0.40;;;10.00;99.90;;;;;;5077531;28;20449;-84
2024/04/02 00:55:29;;;;;;;0.52;0.30;;;10.00;99.90;;;;;;5077786;28;20031;-84
2024/04/02 00:57:54;;;;;;;0.50;0.35;;;10.00;99.90;;;;;;5095028;28;20157;-84
2024/04/02 01:00:20;;;;;;;0.82;0.43;;;10.00;99.90;;;;;;5077744;28;20464;-86
2024/04/02 01:02:46;;;;;;;1.38;0.52;;;10.00;99.90;;;;;;5076900;28;20441;-85
2024/04/02 01:05:12;;;;;;;0.20;0.20;;;10.00;99.90;;;;;;5077758;28;20437;-86
2024/04/02 01:07:39;;;;;;;0.73;0.30;;;10.00;99.90;;;;;;5077529;28;20068;-85
2024/04/02 01:10:06;;;;;;;0.82;0.40;;;10.00;99.90;;;;;;5095210;28;20055;-86
2024/04/02 01:12:32;;;;;;;0.22;0.20;;;10.00;99.90;;;;;;5095534;28;20023;-86
2024/04/02 01:14:57;;;;;;;1.42;0.30;;;9.90;99.90;;;;;;5095188;28;20027;-86
2024/04/02 01:17:23;;;;;;;0.40;0.30;;;10.00;99.90;;;;;;5095624;28;20036;-86
2024/04/02 01:19:48;;;;;;;0.70;0.30;;;9.90;99.90;;;;;;5076991;28;20031;-85
2024/04/02 01:22:14;;;;;;;1.25;0.30;;;9.90;99.90;;;;;;5077372;28;20084;-85
2024/04/02 01:24:46;;;;;;;0.68;0.32;;;9.90;99.90;;;;;;5095252;28;20024;-85
2024/04/02 01:27:12;;;;;;;2.13;0.40;;;9.90;99.90;;;;;;5077313;28;20123;-85
2024/04/02 01:29:38;;;;;;;0.20;0.20;;;9.90;99.90;;;;;;5077417;28;20044;-84
2024/04/02 01:32:04;;;;;;;0.35;0.30;;;9.90;99.90;;;;;;5076634;28;20020;-85
2024/04/02 01:34:33;;;;;;;0.50;0.30;;;9.90;99.90;;;;;;5077229;28;20022;-86
2024/04/02 01:36:58;;;;;;;4.60;0.30;;;9.90;99.90;;;;;;5076632;28;20034;-86
2024/04/02 01:39:24;;;;;;;0.45;0.40;;;10.00;99.90;;;;;;5095327;28;20093;-86
2024/04/02 01:41:49;;;;;;;0.40;0.20;;;9.90;99.90;;;;;;5076714;28;20024;-86
2024/04/02 01:44:15;;;;;;;0.93;0.50;;;9.90;99.90;;;;;;5055778;28;1101672;-86
2024/04/02 01:46:41;;;;;;;1.25;0.40;;;9.90;99.90;;;;;;5096105;28;20032;-86
2024/04/02 01:49:06;;;;;;;0.32;0.30;;;9.90;99.90;;;;;;5095499;28;20028;-84
2024/04/02 01:51:32;;;;;;;1.45;0.40;;;9.90;99.90;;;;;;5077983;28;20054;-84
2024/04/02 01:53:57;;;;;;;0.90;0.30;;;9.90;99.90;;;;;;5077020;28;20115;-84
2024/04/02 01:56:23;;;;;;;0.93;0.43;;;10.00;99.90;;;;;;5077659;28;20031;-84
2024/04/02 01:58:48;;;;;;;2.83;1.10;;;9.90;99.90;;;;;;5077257;28;20016;-84
2024/04/02 02:01:14;;;;;;;2.30;0.50;;;9.90;99.90;;;;;;5077419;28;20091;-83
2024/04/02 02:03:40;;;;;;;1.10;0.45;;;9.90;99.90;;;;;;5077602;28;20069;-82
2024/04/02 02:06:05;;;;;;;1.13;0.30;;;9.90;99.90;;;;;;5076657;28;20217;-84
2024/04/02 02:08:31;;;;;;;0.82;0.40;;;10.00;99.90;;;;;;5077160;28;20449;-85
2024/04/02 02:11:01;;;;;;;1.40;0.30;;;10.00;99.90;;;;;;5076720;28;20024;-86
2024/04/02 02:13:27;;;;;;;1.63;0.40;;;10.00;99.90;;;;;;5077514;28;20027;-86
2024/04/02 02:16:02;;;;;;;1.48;0.43;;;10.00;99.90;;;;;;5076117;28;20032;-86
2024/04/02 02:18:29;;;;;;;1.10;0.38;;;10.00;99.90;;;;;;5077321;28;20365;-82
2024/04/02 02:20:56;;;;;;;0.40;0.40;;;10.00;99.90;;;;;;5095137;28;20031;-83
2024/04/02 02:23:22;;;;;;;0.20;0.20;;;10.00;99.90;;;;;;5077523;28;20020;-82
2024/04/02 02:25:48;;;;;;;2.15;0.50;;;10.00;99.90;;;;;;5077094;28;20350;-88
2024/04/02 02:28:13;;;;;;;0.75;0.20;;;10.00;99.90;;;;;;5077087;28;20042;-84
2024/04/02 02:30:39;;;;;;;0.45;0.20;;;10.00;99.90;;;;;;5076991;28;20461;-88
2024/04/02 02:33:04;;;;;;;0.52;0.28;;;10.00;99.90;;;;;;5076225;28;20077;-90
2024/04/02 02:35:30;;;;;;;0.38;0.30;;;10.00;99.90;;;;;;5094932;28;20453;-90
2024/04/02 02:37:56;;;;;;;0.30;0.30;;;10.00;99.90;;;;;;5076624;28;20368;-89
2024/04/02 02:40:21;;;;;;;0.98;0.38;;;10.00;99.90;;;;;;5077359;28;20024;-87
2024/04/02 02:42:47;;;;;;;0.80;0.50;;;10.00;99.90;;;;;;5076739;28;20368;-88
2024/04/02 02:45:12;;;;;;;0.73;0.50;;;10.00;99.90;;;;;;5076114;28;20075;-86
2024/04/02 02:47:38;;;;;;;0.40;0.25;;;9.90;99.90;;;;;;5094980;28;20026;-87
2024/04/02 02:50:04;;;;;;;0.20;0.20;;;9.90;99.90;;;;;;5076378;28;20024;-87
2024/04/02 02:52:30;;;;;;;0.80;0.40;;;9.90;99.90;;;;;;5076770;28;20024;-86
2024/04/02 02:54:55;;;;;;;2.20;0.50;;;10.00;99.90;;;;;;5076127;28;20024;-86
2024/04/02 02:57:21;;;;;;;1.60;0.52;;;9.90;99.90;;;;;;5094679;28;20476;-86
2024/04/02 02:59:46;;;;;;;0.70;0.30;;;9.90;99.90;;;;;;5094580;28;20027;-86
2024/04/02 03:02:13;;;;;;;0.50;0.30;;;9.90;99.90;;;;;;5075958;28;20023;-89
2024/04/02 03:04:39;;;;;;;0.93;0.32;;;9.90;99.90;;;;;;5094340;28;20089;-88
2024/04/02 03:07:04;;;;;;;0.25;0.20;;;9.90;99.90;;;;;;5076015;28;20457;-88
2024/04/02 03:09:31;;;;;;;1.02;0.40;;;9.90;99.90;;;;;;5094416;28;20016;-88
2024/04/02 03:11:56;;;;;;;1.38;0.38;;;9.90;99.90;;;;;;5076063;28;20085;-88
2024/04/02 03:14:22;;;;;;;0.47;0.35;;;9.80;99.90;;;;;;5094418;28;20020;-86
2024/04/02 03:16:48;;;;;;;0.85;0.40;;;9.80;99.90;;;;;;5076615;28;20404;-85
2024/04/02 03:19:13;;;;;;;0.88;0.30;;;9.80;99.90;;;;;;5094153;28;20035;-85
2024/04/02 03:21:39;;;;;;;1.23;0.30;;;9.80;99.90;;;;;;5076675;28;20031;-85
2024/04/02 03:24:05;;;;;;;1.15;0.35;;;9.80;99.90;;;;;;5076176;28;20020;-86
2024/04/02 03:26:30;;;;;;;0.30;0.25;;;9.70;99.90;;;;;;5076382;28;20524;-85
2024/04/02 03:28:56;;;;;;;0.25;0.20;;;9.70;99.90;;;;;;5093861;28;20024;-89
2024/04/02 03:31:21;;;;;;;1.50;0.38;;;9.80;99.90;;;;;;5094465;28;20020;-89
2024/04/02 03:33:47;;;;;;;1.13;0.22;;;9.70;99.90;;;;;;5094452;28;20020;-89
2024/04/02 03:36:13;;;;;;;0.20;0.20;;;9.70;99.90;;;;;;5075909;28;20036;-86
2024/04/02 03:38:39;;;;;;;0.60;0.30;;;9.70;99.90;;;;;;5076233;28;20031;-85
2024/04/02 03:41:12;;;;;;;0.65;0.40;;;9.70;99.90;;;;;;5075876;28;20073;-85
2024/04/02 03:43:39;;;;;;;0.60;0.30;;;9.60;99.90;;;;;;5094139;28;20450;-85
2024/04/02 03:46:06;;;;;;;0.82;0.50;;;9.60;99.90;;;;;;5075833;28;20101;-84
2024/04/02 03:48:31;;;;;;;1.65;0.40;;;9.60;99.90;;;;;;5076034;28;20111;-85
2024/04/02 03:50:57;;;;;;;0.82;0.47;;;9.60;99.90;;;;;;5075746;28;20040;-85
2024/04/02 03:53:23;;;;;;;0.20;0.20;;;9.60;99.90;;;;;;5076362;28;20058;-84
2024/04/02 03:55:59;;;;;;;1.40;0.30;;;9.60;99.90;;;;;;5076372;28;20039;-84
2024/04/02 03:58:26;;;;;;;0.57;0.32;;;9.60;99.90;;;;;;5080172;28;20016;-83
2024/04/02 04:00:52;;;;;;;1.25;0.35;;;9.60;99.90;;;;;;5076119;28;20024;-88
2024/04/02 04:03:17;;;;;;;1.63;0.43;;;9.50;99.90;;;;;;5094406;28;20043;-83
2024/04/02 04:05:43;;;;;;;0.40;0.40;;;9.50;99.90;;;;;;5094585;28;20373;-83
2024/04/02 04:08:09;;;;;;;0.35;0.32;;;9.50;99.90;;;;;;5093789;28;20101;-82
2024/04/02 04:10:36;;;;;;;0.45;0.30;;;9.50;99.90;;;;;;5076564;28;20394;-83
2024/04/02 04:13:01;;;;;;;0.30;0.28;;;9.50;99.90;;;;;;5076482;28;20028;-84
2024/04/02 04:15:27;;;;;;;0.77;0.30;;;9.50;99.90;;;;;;5076616;28;20038;-83
2024/04/02 04:17:52;;;;;;;2.20;0.30;;;9.50;99.90;;;;;;5076478;28;20122;-83
2024/04/02 04:20:18;;;;;;;0.47;0.40;;;9.50;99.90;;;;;;5076696;28;20364;-83
2024/04/02 04:22:43;;;;;;;0.57;0.30;;;9.50;99.90;;;;;;5094495;28;20024;-83
2024/04/02 04:25:09;;;;;;;0.50;0.30;;;9.50;99.90;;;;;;5075853;28;20012;-83
2024/04/02 04:27:38;;;;;;;1.95;0.40;;;9.50;99.90;;;;;;5094310;28;20055;-83
2024/04/02 04:30:05;;;;;;;1.75;0.30;;;9.50;99.90;;;;;;5076073;28;20024;-83
2024/04/02 04:32:31;;;;;;;1.52;0.30;;;9.50;99.90;;;;;;5075650;28;20047;-85
2024/04/02 04:34:58;;;;;;;0.40;0.30;;;9.50;99.90;;;;;;5075253;28;20020;-86
2024/04/02 04:37:24;;;;;;;0.50;0.40;;;9.40;99.90;;;;;;5075819;28;20111;-85
2024/04/02 04:39:49;;;;;;;1.95;0.30;;;9.50;99.90;;;;;;5097471;28;20059;-86
2024/04/02 04:42:15;;;;;;;0.93;0.30;;;9.50;99.90;;;;;;5097139;28;20466;-81
2024/04/02 04:44:44;;;;;;;2.72;0.30;;;9.50;99.90;;;;;;5096981;28;20055;-80
2024/04/02 04:47:10;;;;;;;0.20;0.20;;;9.40;99.90;;;;;;5078529;28;20035;-84
2024/04/02 04:49:36;;;;;;;0.85;0.20;;;9.40;99.90;;;;;;5079782;28;20023;-86
2024/04/02 04:52:03;;;;;;;1.67;0.30;;;9.30;99.90;;;;;;5097235;28;20020;-86
2024/04/02 04:54:28;;;;;;;0.52;0.30;;;9.30;99.90;;;;;;5096817;28;20027;-86
2024/04/02 04:56:55;;;;;;;2.08;0.50;;;9.30;99.90;;;;;;5078969;28;20032;-89
2024/04/02 04:59:21;;;;;;;0.93;0.60;;;9.30;99.90;;;;;;5078681;28;20016;-84
2024/04/02 05:01:47;;;;;;;1.63;0.40;;;9.30;99.90;;;;;;5082965;28;20032;-84
2024/04/02 05:04:13;;;;;;;1.30;0.22;;;9.30;99.90;;;;;;5076184;28;20036;-82
2024/04/02 05:06:42;;;;;;;1.83;0.35;;;9.30;99.90;;;;;;5058849;28;20024;-82
2024/04/02 05:09:14;;;;;;;2.42;0.40;;;9.30;99.90;;;;;;5058002;28;20020;-90
2024/04/02 05:11:42;;;;;;;1.73;0.35;;;9.30;99.90;;;;;;5058891;28;20051;-84
2024/04/02 05:14:08;;;;;;;0.43;0.17;;;9.30;99.90;;;;;;5057922;28;20024;-84
2024/04/02 05:16:34;;;;;;;0.20;0.20;;;9.30;99.90;;;;;;5058301;28;20037;-83
2024/04/02 05:19:01;;;;;;;0.80;0.40;;;9.30;99.90;;;;;;5075862;28;20085;-83
2024/04/02 05:21:27;;;;;;;0.82;0.30;;;9.30;99.90;;;;;;5070704;28;20035;-77
2024/04/02 05:23:52;;;;;;;0.43;0.30;;;9.30;99.90;;;;;;5096859;28;20024;-79
2024/04/02 05:26:18;;;;;;;0.75;0.30;;;9.30;99.90;;;;;;5078305;28;20626;-81
2024/04/02 05:28:43;;;;;;;0.30;0.20;;;9.20;99.90;;;;;;5077672;28;20114;-79
2024/04/02 05:31:10;;;;;;;0.70;0.20;;;9.20;99.90;;;;;;5095735;28;20020;-82
2024/04/02 05:33:36;;;;;;;2.30;0.38;;;9.20;99.90;;;;;;5072486;28;20579;-82
2024/04/02 05:36:01;;;;;;;1.25;0.40;;;9.20;99.90;;;;;;5057902;28;20115;-80
2024/04/02 05:38:27;;;;;;;0.95;0.30;;;9.20;99.90;;;;;;5057593;28;20587;-81
2024/04/02 05:40:53;;;;;;;7.80;0.47;;;9.20;99.90;;;;;;5075275;28;20082;-81
2024/04/02 05:43:18;;;;;;;0.63;0.30;;;9.20;99.90;;;;;;5057686;28;20483;-81
2024/04/02 05:45:44;;;;;;;5.85;0.38;;;9.20;99.90;;;;;;5058212;28;20098;-80
2024/04/02 05:48:10;;;;;;;1.27;0.25;;;9.20;99.90;;;;;;5057851;28;20111;-81
2024/04/02 05:50:35;;;;;;;0.85;0.30;;;9.20;99.90;;;;;;5057084;28;20028;-81
2024/04/02 05:53:01;;;;;;;0.20;0.20;;;9.10;99.90;;;;;;5057618;28;20033;-85
2024/04/02 05:55:27;;;;;;;0.55;0.22;;;9.10;99.90;;;;;;5058391;28;20039;-81
2024/04/02 05:57:55;;;;;;;0.85;0.30;;;9.10;99.90;;;;;;5075892;28;20533;-80
2024/04/02 06:00:21;;;;;;;2.13;0.30;;;9.00;99.90;;;;;;5057773;28;20460;-80
2024/04/02 06:02:46;;;;;;;0.50;0.30;;;9.00;99.90;;;;;;5057682;28;20017;-81
2024/04/02 06:05:12;;;;;;;3.10;0.40;;;9.00;99.90;;;;;;5057498;28;20020;-81
2024/04/02 06:07:37;;;;;;;0.35;0.20;;;9.00;99.90;;;;;;5057881;28;20369;-82
2024/04/02 06:10:03;;;;;;;0.30;0.30;;;9.00;99.90;;;;;;5057767;28;20028;-81
2024/04/02 06:12:29;;;;;;;0.32;0.20;;;9.00;99.90;;;;;;5075660;28;20082;-81
2024/04/02 06:14:56;;;;;;;0.22;0.20;;;9.00;99.90;;;;;;5058020;28;20369;-80
2024/04/02 06:17:21;;;;;;;0.82;0.30;;;9.10;99.90;;;;;;5057101;28;20036;-80
2024/04/02 06:19:47;;;;;;;0.98;0.30;;;9.00;99.90;;;;;;5057969;28;20063;-80
2024/04/02 06:22:12;;;;;;;3.92;0.52;;;9.00;99.90;;;;;;5074241;28;20046;-80
2024/04/02 06:24:38;;;;;;;0.70;0.35;;;9.00;99.90;;;;;;5058120;28;20473;-80
2024/04/02 06:27:04;;;;;;;1.00;0.38;;;9.10;99.90;;;;;;5074924;28;20350;-80
2024/04/02 06:29:30;;;;;;;0.50;0.50;;;9.10;99.90;;;;;;5057928;28;20020;-80
2024/04/02 06:31:56;;;;;;;1.75;0.45;;;9.10;99.90;;;;;;5057216;28;20031;-79
2024/04/02 06:34:21;;;;;;;1.05;0.50;;;9.20;99.90;;;;;;5074591;28;20452;-80
2024/04/02 06:36:47;;;;;;;1.02;0.30;;;9.20;99.90;;;;;;5074762;28;20038;-80
2024/04/02 06:39:12;;;;;;;0.90;0.30;;;9.20;99.90;;;;;;5056975;28;20065;-81
2024/04/02 06:41:38;;;;;;;1.33;0.20;;;9.30;99.90;;;;;;5056903;28;20020;-81
2024/04/02 06:44:04;;;;;;;3.55;0.30;;;9.30;99.90;;;;;;5074233;28;20028;-81
2024/04/02 06:46:29;;;;;;;0.82;0.55;;;9.40;99.90;;;;;;5057246;28;20035;-81
2024/04/02 06:48:56;;;;;;;1.42;0.35;;;9.50;99.90;;;;;;5056968;28;20025;-80
2024/04/02 06:51:22;;;;;;;0.55;0.43;;;9.50;99.90;;;;;;5056953;28;20091;-81
2024/04/02 06:53:48;;;;;;;0.93;0.30;;;9.60;99.90;;;;;;5057205;28;20055;-81
2024/04/02 06:56:13;;;;;;;2.47;0.40;;;9.50;99.90;;;;;;5056390;28;20078;-81
2024/04/02 06:58:39;;;;;;;3.38;0.40;;;9.60;99.90;;;;;;5074703;28;20213;-81
2024/04/02 07:01:04;;;;;;;0.77;0.20;;;9.60;99.90;;;;;;5056923;28;20028;-81
2024/04/02 07:03:30;;;;;;;2.47;0.88;;;9.50;99.90;;;;;;5057505;28;20021;-81
2024/04/02 07:05:56;;;;;;;0.75;0.32;;;9.50;99.90;;;;;;5056877;28;20461;-81
2024/04/02 07:08:24;;;;;;;2.13;0.40;;;9.50;99.90;;;;;;5073954;28;20029;-81
2024/04/02 07:11:04;;;;;;;1.60;0.30;;;9.50;99.90;;;;;;5056628;28;20115;-81
2024/04/02 07:13:31;;;;;;;0.50;0.30;;;9.50;99.90;;;;;;5074398;28;20027;-81
2024/04/02 07:15:56;;;;;;;2.47;0.40;;;9.60;99.90;;;;;;5056664;28;20558;-81
2024/04/02 07:18:22;;;;;;;0.63;0.40;;;9.60;99.90;;;;;;5074314;28;20056;-80
2024/04/02 07:21:02;;;;;;;2.13;0.50;;;9.50;99.90;;;;;;5056485;28;20047;-80
2024/04/02 07:23:27;;;;;;;0.57;0.20;;;9.50;99.90;;;;;;5057090;28;20024;-81
2024/04/02 07:25:53;;;;;;;2.58;0.40;;;9.60;99.90;;;;;;5056666;28;20083;-80
2024/04/02 07:28:20;;;;;;;2.13;0.50;;;9.60;99.90;;;;;;5055913;28;20050;-81
2024/04/02 07:30:46;;;;;;;0.85;0.40;;;9.70;99.90;;;;;;5073842;28;20028;-81
2024/04/02 07:33:12;;;;;;;2.20;0.45;;;9.80;99.90;;;;;;5055905;28;20024;-80
2024/04/02 07:35:38;;;;;;;1.38;0.45;;;9.80;99.90;;;;;;5073908;28;20077;-81
2024/04/02 07:38:04;;;;;;;4.00;0.40;;;9.90;99.90;;;;;;5056168;28;20020;-82
2024/04/02 07:40:30;;;;;;;2.65;0.40;;;10.00;99.90;;;;;;5074420;28;20031;-80
2024/04/02 07:42:57;;;;;;;4.72;1.17;;;10.00;99.90;;;;;;5073906;28;20029;-81
2024/04/02 07:45:23;;;;;;;2.65;0.55;;;10.10;99.90;;;;;;5072849;28;20347;-81
2024/04/02 07:47:48;;;;;;;2.45;0.50;;;10.20;99.90;;;;;;5055893;28;20031;-82
2024/04/02 07:50:14;;;;;;;2.75;0.50;;;10.30;99.90;;;;;;5055696;28;20520;-81
2024/04/02 07:52:40;;;;;;;3.05;0.40;;;10.40;99.90;;;;;;5055778;28;20056;-80
2024/04/02 07:55:05;;;;;;;1.98;0.60;;;10.50;99.90;;;;;;5055320;28;20407;-82
2024/04/02 07:57:31;;;;;;;2.60;0.57;;;10.50;99.90;;;;;;5056076;28;20021;-81
2024/04/02 07:59:57;;;;;;;0.65;0.20;;;10.60;99.90;;;;;;5055970;28;20021;-81
2024/04/02 08:02:22;;;;;;;4.40;0.50;;;10.50;99.90;;;;;;5073028;28;20024;-80
2024/04/02 08:04:51;;;;;;;7.10;0.80;;;10.60;99.90;;;;;;5056017;28;20445;-81
2024/04/02 08:07:17;;;;;;;2.47;0.60;;;10.80;99.90;;;;;;5055299;28;20032;-81
2024/04/02 08:09:44;;;;;;;5.00;0.52;;;10.80;99.90;;;;;;5055809;28;20136;-81
2024/04/02 08:12:09;;;;;;;1.10;0.40;;;10.90;99.90;;;;;;5073118;28;20020;-82
2024/04/02 08:14:35;;;;;;;3.03;0.60;;;11.00;99.90;;;;;;5058770;28;20538;-82
2024/04/02 08:17:02;;;;;;;1.63;0.70;;;11.00;99.90;;;;;;5059356;28;20049;-82
2024/04/02 08:19:28;;;;;;;2.88;0.50;;;10.90;99.90;;;;;;5059061;28;20036;-81
2024/04/02 08:21:53;;;;;;;2.22;0.43;;;10.90;99.90;;;;;;5059719;28;20060;-80
2024/04/02 08:24:19;;;;;;;4.65;0.80;;;11.00;99.90;;;;;;5076918;28;20507;-81
2024/04/02 08:26:45;;;;;;;2.97;0.50;;;11.10;99.90;;;;;;5059514;28;20067;-80
2024/04/02 08:29:11;;;;;;;2.80;0.50;;;11.20;99.90;;;;;;5059106;28;20472;-81
2024/04/02 08:31:36;;;;;;;1.38;0.55;;;11.30;99.90;;;;;;5059375;28;20025;-80
2024/04/02 08:34:03;;;;;;;3.58;0.60;;;11.30;99.90;;;;;;5059491;28;20024;-80
2024/04/02 08:36:29;;;;;;;2.60;0.60;;;11.20;99.90;;;;;;5058903;28;20068;-80
2024/04/02 08:38:55;;;;;;;3.53;0.47;;;11.20;99.90;;;;;;5059311;28;20016;-80
2024/04/02 08:41:24;;;;;;;6.07;0.68;;;11.10;99.90;;;;;;5059071;28;20020;-80
2024/04/02 08:43:52;;;;;;;3.10;0.52;;;11.10;99.90;;;;;;5058942;28;20142;-79
2024/04/02 08:46:18;;;;;;;4.70;0.50;;;11.10;99.90;;;;;;5058721;28;20028;-80
2024/04/02 08:48:45;;;;;;;3.60;0.55;;;11.10;99.90;;;;;;5059449;28;20036;-81
2024/04/02 08:51:10;;;;;;;3.20;0.60;;;11.20;99.90;;;;;;5059597;28;20024;-81
2024/04/02 08:53:36;;;;;;;1.05;0.50;;;11.30;99.90;;;;;;5059671;28;20095;-80
2024/04/02 08:56:03;;;;;;;6.05;0.70;;;11.30;99.90;;;;;;5076975;28;20037;-80
2024/04/02 08:58:29;;;;;;;3.83;0.70;;;11.30;99.90;;;;;;5058937;28;20030;-81
2024/04/02 09:00:56;;;;;;;1.70;0.40;;;11.50;99.90;;;;;;5077441;28;20021;-81
2024/04/02 09:03:23;;;;;;;1.30;0.60;;;11.60;99.90;;;;;;5058772;28;20025;-81
2024/04/02 09:05:49;;;;;;;3.33;0.98;;;11.60;99.90;;;;;;5059059;28;20024;-81
2024/04/02 09:08:14;;;;;;;2.63;0.50;;;11.70;99.90;;;;;;5058396;28;20023;-79
2024/04/02 09:10:41;;;;;;;3.90;0.60;;;11.60;99.90;;;;;;5077041;28;20393;-81
2024/04/02 09:13:07;;;;;;;4.15;0.77;;;11.60;99.90;;;;;;5058806;28;20028;-80
2024/04/02 09:15:34;;;;;;;2.00;0.52;;;11.50;99.90;;;;;;5058142;28;20032;-80
2024/04/02 09:18:00;;;;;;;3.08;0.70;;;11.40;99.90;;;;;;5058846;28;20377;-80
2024/04/02 09:20:26;;;;;;;1.17;0.57;;;11.50;99.90;;;;;;5058552;28;20111;-80
2024/04/02 09:22:52;;;;;;;5.65;1.13;;;11.60;99.90;;;;;;5076405;28;20051;-81
2024/04/02 09:25:21;;;;;;;2.63;0.47;;;11.60;99.90;;;;;;5058459;28;20074;-80
2024/04/02 09:27:47;;;;;;;1.55;0.50;;;11.70;99.90;;;;;;5076317;28;20012;-81
2024/04/02 09:30:13;;;;;;;4.72;0.65;;;11.60;99.90;;;;;;5075855;28;20115;-82
2024/04/02 09:32:39;;;;;;;4.57;0.55;;;11.60;99.90;;;;;;5076209;28;20024;-82
2024/04/02 09:35:13;;;;;;;5.15;0.82;;;11.70;99.90;;;;;;5076037;28;20078;-84
2024/04/02 09:37:47;;;;;;;3.70;0.63;;;12.00;99.90;;;;;;5058137;28;20454;-80
2024/04/02 09:40:14;;;;;;;4.28;0.60;;;12.10;99.90;;;;;;5058047;28;20021;-81
2024/04/02 09:42:40;;;;;;;5.30;1.10;;;12.10;99.90;;;;;;5058106;28;20067;-79
2024/04/02 09:45:08;;;;;;;4.25;0.77;;;12.30;99.90;;;;;;5054663;28;20045;-80
2024/04/02 09:47:34;;;;;;;6.75;0.98;;;12.30;99.90;;;;;;5054385;28;20029;-81
2024/04/02 09:50:01;;;;;;;3.25;0.98;;;12.20;99.90;;;;;;5056306;28;20048;-80
2024/04/02 09:52:27;;;;;;;4.53;1.10;;;12.10;99.90;;;;;;5055465;28;20155;-81
2024/04/02 09:54:54;;;;;;;4.40;0.90;;;12.00;99.90;;;;;;5056502;28;20127;-82
2024/04/02 09:57:21;;;;;;;5.10;0.85;;;12.00;99.90;;;;;;5054610;28;20029;-81
2024/04/02 09:59:47;;;;;;;5.60;0.70;;;11.90;99.90;;;;;;5055859;28;20021;-80
2024/04/02 10:02:23;;;;;;;4.38;0.75;;;11.90;99.90;;;;;;5054319;28;20029;-82
2024/04/02 10:04:51;;;;;;;5.63;0.73;;;11.90;99.90;;;;;;5055928;28;20025;-81
2024/04/02 10:07:28;;;;;;;4.32;0.65;;;11.80;99.90;;;;;;5054213;28;20024;-81
2024/04/02 10:09:58;;;;;;;4.55;0.70;;;11.80;99.90;;;;;;5054491;28;20107;-80
2024/04/02 10:12:33;;;;;;;3.97;0.80;;;11.80;99.90;;;;;;5054609;28;20029;-81
2024/04/02 10:15:12;;;;;;;3.38;0.98;;;11.90;99.90;;;;;;5054050;28;20025;-80
2024/04/02 10:17:38;;;;;;;4.07;0.60;;;12.00;99.90;;;;;;5054289;28;20442;-80
2024/04/02 10:20:27;;;;;;;4.10;0.95;;;12.00;99.90;;;;;;5054128;28;20527;-80
2024/04/02 10:22:53;;;;;;;7.15;0.50;;;12.00;99.90;;;;;;5055247;28;20028;-80
2024/04/02 10:25:19;;;;;;;5.85;0.65;;;12.10;99.90;;;;;;5053738;28;20450;-80
2024/04/02 10:27:48;;;;;;;3.03;0.68;;;12.20;99.90;;;;;;5053978;28;20117;-81
2024/04/02 10:30:16;;;;;;;2.80;0.57;;;12.20;99.90;;;;;;5054596;28;20032;-81
2024/04/02 10:32:45;;;;;;;3.78;0.60;;;12.30;99.90;;;;;;5053706;28;20021;-80
2024/04/02 10:35:38;;;;;;;2.63;0.60;;;12.40;99.90;;;;;;5053261;28;20021;-80
2024/04/02 10:38:05;;;;;;;3.17;0.50;;;12.50;99.90;;;;;;5054644;28;20029;-80
2024/04/02 10:40:31;;;;;;;3.90;0.68;;;12.60;99.90;;;;;;5054113;28;20029;-80
2024/04/02 10:42:57;;;;;;;3.67;0.73;;;12.70;99.90;;;;;;5053991;28;20021;-81
2024/04/02 10:45:23;;;;;;;6.93;0.55;;;12.70;99.90;;;;;;5052301;28;20536;-80
2024/04/02 10:47:50;;;;;;;3.78;0.80;;;12.80;99.90;;;;;;5054651;28;20021;-81
2024/04/02 10:50:17;;;;;;;1.73;0.40;;;12.90;99.90;;;;;;5052756;28;20104;-81
2024/04/02 10:52:43;;;;;;;5.45;0.70;;;12.70;99.90;;;;;;5054356;28;20103;-81
2024/04/02 10:55:09;;;;;;;3.35;0.75;;;12.60;99.90;;;;;;5054465;28;20071;-80
2024/04/02 10:57:36;;;;;;;1.40;0.50;;;12.60;99.90;;;;;;5054063;28;20047;-81
2024/04/02 11:00:05;;;;;;;4.30;0.60;;;12.60;99.90;;;;;;5053533;28;20021;-81
2024/04/02 11:02:32;;;;;;;2.50;0.60;;;12.50;99.90;;;;;;5052785;28;20063;-81
2024/04/02 11:04:58;;;;;;;4.80;0.73;;;12.40;99.90;;;;;;5054258;28;20526;-82
2024/04/02 11:07:28;;;;;;;2.75;0.60;;;12.30;99.90;;;;;;5052550;28;20123;-81
2024/04/02 11:09:54;;;;;;;6.82;1.33;;;12.20;99.90;;;;;;5054006;28;20070;-81
2024/04/02 11:12:20;;;;;;;6.90;0.82;;;12.10;99.90;;;;;;5052634;28;20408;-81
2024/04/02 11:14:51;;;;;;;5.07;0.73;;;12.20;99.90;;;;;;5053295;28;20405;-81
2024/04/02 11:17:18;;;;;;;2.27;0.40;;;12.40;99.90;;;;;;5053863;28;20044;-81
2024/04/02 11:19:44;;;;;;;3.50;0.50;;;12.50;99.90;;;;;;5052989;28;20040;-81
2024/04/02 11:24:58;;;;;;;1.00;0.50;;;12.70;99.90;;;;;;5054332;28;20028;-80
2024/04/02 11:27:27;;;;;;;3.22;1.08;;;12.90;99.90;;;;;;5052793;28;20035;-81
2024/04/02 11:29:54;;;;;;;6.65;0.85;;;12.90;99.90;;;;;;5052706;28;20052;-81
2024/04/02 11:32:22;;;;;;;3.35;0.50;;;12.90;99.90;;;;;;5052460;28;20025;-83
2024/04/02 11:35:04;;;;;;;3.83;0.75;;;13.00;99.90;;;;;;5052906;28;20028;-81
2024/04/02 11:37:31;;;;;;;2.20;0.63;;;13.00;99.90;;;;;;5052269;28;20025;-81
2024/04/02 11:39:57;;;;;;;1.85;0.30;;;13.00;99.90;;;;;;5052688;28;20029;-81
2024/04/02 11:42:24;;;;;;;3.50;0.55;;;12.90;99.90;;;;;;5052063;28;20102;-81
2024/04/02 11:44:51;;;;;;;3.10;0.50;;;12.90;99.90;;;;;;5062227;28;20048;-81
2024/04/02 11:47:18;;;;;;;1.67;0.43;;;13.10;99.90;;;;;;5075349;28;20032;-83
2024/04/02 11:49:44;;;;;;;3.67;0.95;;;13.20;99.90;;;;;;5060379;28;20025;-80
2024/04/02 11:52:10;;;;;;;1.63;0.47;;;13.20;99.90;;;;;;5060377;28;20021;-81
2024/04/02 11:54:36;;;;;;;0.77;0.40;;;13.10;99.90;;;;;;5059876;28;20050;-81
2024/04/02 12:02:34;;;;;;;4.95;0.77;;;13.00;99.90;;;;;;5077352;28;20035;-81
2024/04/02 12:05:01;;;;;;;2.15;0.55;;;13.00;99.90;;;;;;5059946;28;20020;-81
2024/04/02 12:07:28;;;;;;;2.58;0.60;;;13.00;99.90;;;;;;5059385;28;20034;-82
2024/04/02 12:09:56;;;;;;;1.00;0.28;;;12.90;99.90;;;;;;5059988;28;20031;-81
2024/04/02 12:12:22;;;;;;;0.80;0.28;;;13.10;99.90;;;;;;5059459;28;20048;-82
2024/04/02 12:14:48;;;;;;;2.15;0.40;;;13.00;99.90;;;;;;5059452;28;20029;-81
2024/04/02 12:17:14;;;;;;;1.63;0.40;;;13.00;99.90;;;;;;5059680;28;20086;-81
2024/04/02 12:19:40;;;;;;;3.05;0.45;;;13.10;99.90;;;;;;5059202;28;20032;-81
2024/04/02 12:22:06;;;;;;;2.13;0.40;;;13.30;99.90;;;;;;5059450;28;20020;-81
2024/04/02 12:24:32;;;;;;;5.10;0.47;;;13.60;99.90;;;;;;5059086;28;20020;-80
2024/04/02 12:26:58;;;;;;;1.73;0.40;;;13.60;99.90;;;;;;5059660;28;20024;-81
2024/04/02 12:29:23;;;;;;;2.38;0.52;;;13.40;99.90;;;;;;5059163;28;20043;-82
2024/04/02 12:31:49;;;;;;;2.75;0.70;;;13.30;99.90;;;;;;5076996;28;20099;-81
2024/04/02 12:34:18;;;;;;;2.30;0.40;;;12.90;99.90;;;;;;5059406;28;20028;-80
2024/04/02 12:36:46;;;;;;;1.30;0.30;;;13.00;99.90;;;;;;5076330;28;20369;-81
2024/04/02 12:39:12;;;;;;;1.95;0.40;;;13.10;99.90;;;;;;5077244;28;20021;-81
2024/04/02 12:41:38;;;;;;;1.08;0.35;;;13.50;99.90;;;;;;5076657;28;20074;-80
2024/04/02 12:44:06;;;;;;;3.05;0.50;;;13.80;99.90;;;;;;5076660;28;20017;-80
2024/04/02 12:46:32;;;;;;;2.35;0.45;;;14.20;99.90;;;;;;5058891;28;20037;-81
2024/04/02 12:48:58;;;;;;;1.85;0.50;;;14.20;99.90;;;;;;5076953;28;20032;-80
2024/04/02 12:51:24;;;;;;;2.05;0.50;;;13.90;99.90;;;;;;5058786;28;20028;-81
2024/04/02 12:53:49;;;;;;;1.23;0.30;;;13.60;99.90;;;;;;5058814;28;20411;-81
2024/04/02 12:56:15;;;;;;;2.95;0.40;;;13.60;99.90;;;;;;5076636;28;20029;-81